Time;durP1;ratioP1;P1;durP2;ratioP2;P2;SDS_P1;SDS_P2;PMS_P1;PMS_P2;Temp;Humidity;BMP_temperature;BMP_pressure;BME280_temperature;BME280_humidity;BME280_pressure;Samples;Min_cycle;Max_cycle;Signal;HPM_P1;HPM_P2
2023/06/23 00:01:03;;;;;;;22.38;19.63;;;;;;;;;;5149192;27;20035;-70
2023/06/23 00:03:32;;;;;;;27.98;21.90;;;;;;;;;;5125536;27;20039;-70
2023/06/23 00:06:00;;;;;;;27.23;21.15;;;;;;;;;;5134301;27;20043;-70
2023/06/23 00:08:26;;;;;;;26.30;22.73;;;;;;;;;;5151968;27;20055;-70
2023/06/23 00:10:52;;;;;;;27.40;22.20;;;;;;;;;;5107057;27;20038;-70
2023/06/23 00:13:19;;;;;;;27.88;21.60;;;;;;;;;;5140150;27;20043;-70
2023/06/23 00:15:46;;;;;;;26.23;22.30;;;;;;;;;;5124283;27;20540;-70
2023/06/23 00:18:12;;;;;;;24.98;21.25;;;;;;;;;;5119092;27;20042;-70
2023/06/23 00:20:38;;;;;;;23.65;20.95;;;;;;;;;;5141126;27;20077;-70
2023/06/23 00:23:04;;;;;;;27.77;20.35;;;;;;;;;;5122654;27;20125;-70
2023/06/23 00:25:30;;;;;;;31.33;19.92;;;;;;;;;;5135908;27;20056;-70
2023/06/23 00:27:57;;;;;;;26.33;20.00;;;;;;;;;;5138267;27;20055;-70
2023/06/23 00:30:23;;;;;;;24.95;20.60;;;;;;;;;;5141397;27;20634;-70
2023/06/23 00:32:50;;;;;;;24.73;19.33;;;;;;;;;;5141085;27;20465;-70
2023/06/23 00:35:16;;;;;;;23.70;20.20;;;;;;;;;;5117730;27;20085;-70
2023/06/23 00:37:43;;;;;;;21.65;18.13;;;;;;;;;;5116492;27;20053;-70
2023/06/23 00:40:12;;;;;;;24.58;19.52;;;;;;;;;;5113068;27;20084;-70
2023/06/23 00:42:52;;;;;;;29.52;20.60;;;;;;;;;;5097517;27;20043;-70
2023/06/23 00:45:19;;;;;;;27.25;18.45;;;;;;;;;;5135322;27;21180;-70
2023/06/23 00:47:45;;;;;;;24.73;19.65;;;;;;;;;;5116418;27;20119;-70
2023/06/23 00:50:16;;;;;;;23.33;18.73;;;;;;;;;;5120958;27;20129;-70
2023/06/23 00:52:49;;;;;;;21.60;18.40;;;;;;;;;;5099571;27;20486;-70
2023/06/23 00:55:16;;;;;;;23.63;19.02;;;;;;;;;;5139273;27;20109;-70
2023/06/23 00:57:44;;;;;;;25.98;19.13;;;;;;;;;;5120510;27;20047;-70
2023/06/23 01:00:17;;;;;;;23.00;19.00;;;;;;;;;;5119517;27;20505;-70
2023/06/23 01:02:44;;;;;;;22.70;19.25;;;;;;;;;;5137974;27;20384;-70
2023/06/23 01:05:10;;;;;;;30.38;20.00;;;;;;;;;;5119975;27;20367;-70
2023/06/23 01:07:42;;;;;;;22.85;18.75;;;;;;;;;;5134337;27;20540;-70
2023/06/23 01:10:09;;;;;;;21.77;18.65;;;;;;;;;;5118599;27;20069;-70
2023/06/23 01:12:43;;;;;;;26.70;20.25;;;;;;;;;;5137831;27;20078;-70
2023/06/23 01:15:15;;;;;;;25.00;20.05;;;;;;;;;;5137367;27;20483;-70
2023/06/23 01:17:53;;;;;;;23.88;19.90;;;;;;;;;;5138703;27;20051;-70
2023/06/23 01:20:24;;;;;;;26.80;20.67;;;;;;;;;;5138597;27;20054;-70
2023/06/23 01:23:03;;;;;;;26.95;20.95;;;;;;;;;;5121119;27;20513;-70
2023/06/23 01:25:35;;;;;;;24.48;20.85;;;;;;;;;;5118474;27;20455;-70
2023/06/23 01:28:08;;;;;;;29.17;21.10;;;;;;;;;;5129051;27;20050;-70
2023/06/23 01:30:36;;;;;;;29.30;21.77;;;;;;;;;;5129789;27;20494;-70
2023/06/23 01:33:15;;;;;;;26.00;22.00;;;;;;;;;;5131000;27;20144;-70
2023/06/23 01:35:44;;;;;;;28.05;22.88;;;;;;;;;;5141845;27;20053;-70
2023/06/23 01:38:29;;;;;;;28.05;22.00;;;;;;;;;;5122150;27;20067;-70
2023/06/23 01:40:58;;;;;;;27.73;23.25;;;;;;;;;;5114466;27;20046;-70
2023/06/23 01:43:29;;;;;;;38.25;22.20;;;;;;;;;;5126930;27;20043;-70
2023/06/23 01:46:00;;;;;;;27.25;22.23;;;;;;;;;;5151585;27;20129;-70
2023/06/23 01:48:27;;;;;;;30.63;21.35;;;;;;;;;;5139923;27;20478;-70
2023/06/23 01:50:54;;;;;;;28.05;22.23;;;;;;;;;;5129019;27;20046;-70
2023/06/23 01:53:21;;;;;;;29.50;21.40;;;;;;;;;;5123737;27;20043;-70
2023/06/23 01:55:48;;;;;;;28.40;21.38;;;;;;;;;;5107314;27;20040;-70
2023/06/23 01:58:15;;;;;;;26.98;21.00;;;;;;;;;;5125997;27;20046;-70
2023/06/23 02:00:42;;;;;;;28.13;20.48;;;;;;;;;;5144429;27;20042;-70
2023/06/23 02:03:08;;;;;;;26.35;19.88;;;;;;;;;;5132426;27;20043;-70
2023/06/23 02:05:36;;;;;;;27.38;21.55;;;;;;;;;;5129033;27;20047;-70
2023/06/23 02:08:02;;;;;;;29.88;22.70;;;;;;;;;;5130806;27;20042;-70
2023/06/23 02:10:29;;;;;;;29.65;24.40;;;;;;;;;;5124186;27;20042;-70
2023/06/23 02:12:55;;;;;;;31.13;24.60;;;;;;;;;;5153134;27;20457;-70
2023/06/23 02:15:22;;;;;;;36.10;26.48;;;;;;;;;;5137244;27;20051;-70
2023/06/23 02:17:49;;;;;;;34.70;26.88;;;;;;;;;;5131153;27;20090;-70
2023/06/23 02:20:17;;;;;;;33.47;28.52;;;;;;;;;;5123789;27;20046;-70
2023/06/23 02:22:45;;;;;;;33.20;27.33;;;;;;;;;;5123872;27;21339;-70
2023/06/23 02:25:12;;;;;;;41.67;30.52;;;;;;;;;;5119858;27;20046;-70
2023/06/23 02:27:39;;;;;;;38.20;32.83;;;;;;;;;;5123139;27;20042;-70
2023/06/23 02:30:06;;;;;;;44.72;33.40;;;;;;;;;;5122564;27;20047;-70
2023/06/23 02:32:32;;;;;;;43.00;33.78;;;;;;;;;;5142944;27;20100;-70
2023/06/23 02:34:58;;;;;;;40.92;34.00;;;;;;;;;;5146557;27;20042;-70
2023/06/23 02:37:26;;;;;;;41.60;35.92;;;;;;;;;;5132683;27;20501;-70
2023/06/23 02:40:09;;;;;;;41.42;35.72;;;;;;;;;;5133377;27;20038;-70
2023/06/23 02:42:39;;;;;;;40.35;33.22;;;;;;;;;;5125396;27;20499;-70
2023/06/23 02:45:09;;;;;;;43.53;34.17;;;;;;;;;;5125973;27;20062;-70
2023/06/23 02:47:38;;;;;;;44.55;34.47;;;;;;;;;;5155992;27;20402;-70
2023/06/23 02:50:05;;;;;;;44.28;32.60;;;;;;;;;;5148268;27;20086;-70
2023/06/23 02:52:34;;;;;;;39.38;31.25;;;;;;;;;;5154053;27;20038;-70
2023/06/23 02:55:02;;;;;;;39.42;31.15;;;;;;;;;;5146501;27;20492;-70
2023/06/23 02:57:30;;;;;;;37.35;31.00;;;;;;;;;;5142412;27;20481;-70
2023/06/23 02:59:59;;;;;;;42.47;31.52;;;;;;;;;;5114217;27;20080;-70
2023/06/23 03:02:25;;;;;;;36.05;28.23;;;;;;;;;;5136965;27;20528;-70
2023/06/23 03:04:52;;;;;;;36.55;29.40;;;;;;;;;;5122119;27;20397;-70
2023/06/23 03:07:19;;;;;;;33.65;27.02;;;;;;;;;;5130799;27;20065;-70
2023/06/23 03:09:45;;;;;;;33.65;27.75;;;;;;;;;;5125436;27;20035;-70
2023/06/23 03:12:11;;;;;;;33.42;26.45;;;;;;;;;;5139474;27;20486;-70
2023/06/23 03:14:38;;;;;;;32.33;25.80;;;;;;;;;;5120686;27;20066;-70
2023/06/23 03:17:14;;;;;;;33.65;24.48;;;;;;;;;;5103522;27;20078;-70
2023/06/23 03:19:52;;;;;;;28.52;24.80;;;;;;;;;;5131615;27;20437;-70
2023/06/23 03:22:29;;;;;;;32.88;24.88;;;;;;;;;;5136534;27;20038;-70
2023/06/23 03:24:57;;;;;;;30.75;24.13;;;;;;;;;;5116907;27;20043;-70
2023/06/23 03:27:26;;;;;;;30.25;24.10;;;;;;;;;;5142231;27;20046;-70
2023/06/23 03:30:02;;;;;;;30.98;23.77;;;;;;;;;;5161759;27;20173;-70
2023/06/23 03:32:34;;;;;;;26.48;23.63;;;;;;;;;;5122732;27;20627;-70
2023/06/23 03:35:03;;;;;;;29.58;22.33;;;;;;;;;;5143406;27;20110;-70
2023/06/23 03:37:31;;;;;;;27.42;22.52;;;;;;;;;;5123835;27;20407;-70
2023/06/23 03:39:59;;;;;;;29.25;23.58;;;;;;;;;;5118916;27;20482;-70
2023/06/23 03:42:26;;;;;;;28.80;23.13;;;;;;;;;;5131568;27;20466;-70
2023/06/23 03:44:53;;;;;;;27.92;23.00;;;;;;;;;;5138505;27;20550;-69
2023/06/23 03:47:21;;;;;;;30.73;21.63;;;;;;;;;;5121192;27;20080;-70
2023/06/23 03:49:50;;;;;;;27.90;21.60;;;;;;;;;;5148618;27;20035;-70
2023/06/23 03:52:18;;;;;;;27.88;21.63;;;;;;;;;;5151323;27;20089;-70
2023/06/23 03:54:45;;;;;;;25.15;19.45;;;;;;;;;;5126045;27;20449;-70
2023/06/23 03:57:27;;;;;;;25.00;18.63;;;;;;;;;;5127017;27;20074;-70
2023/06/23 03:59:54;;;;;;;24.85;18.98;;;;;;;;;;5126457;27;20046;-70
2023/06/23 04:02:22;;;;;;;26.58;19.30;;;;;;;;;;5135134;27;20355;-70
2023/06/23 04:04:50;;;;;;;26.63;19.13;;;;;;;;;;5119449;27;20545;-70
2023/06/23 04:07:18;;;;;;;28.45;18.17;;;;;;;;;;5133689;27;20050;-70
2023/06/23 04:09:45;;;;;;;25.30;18.10;;;;;;;;;;5124665;27;20082;-70
2023/06/23 04:12:13;;;;;;;23.20;17.73;;;;;;;;;;5144022;27;20491;-70
2023/06/23 04:14:42;;;;;;;25.23;17.70;;;;;;;;;;5127917;27;20338;-70
2023/06/23 04:17:10;;;;;;;24.92;17.58;;;;;;;;;;5145067;27;20054;-70
2023/06/23 04:19:36;;;;;;;24.83;15.02;;;;;;;;;;5116665;27;20047;-69
2023/06/23 04:22:04;;;;;;;18.70;15.30;;;;;;;;;;5152421;27;20039;-70
2023/06/23 04:24:32;;;;;;;19.02;14.43;;;;;;;;;;5105214;27;20125;-70
2023/06/23 04:26:59;;;;;;;21.35;14.68;;;;;;;;;;5123769;27;20079;-70
2023/06/23 04:29:27;;;;;;;21.13;15.38;;;;;;;;;;5133368;27;21050;-69
2023/06/23 04:31:54;;;;;;;18.98;14.05;;;;;;;;;;5149737;27;20058;-70
2023/06/23 04:34:21;;;;;;;20.80;15.57;;;;;;;;;;5127608;27;20061;-70
2023/06/23 04:37:06;;;;;;;22.55;16.45;;;;;;;;;;5114160;27;20039;-70
2023/06/23 04:39:42;;;;;;;20.75;15.40;;;;;;;;;;5132739;27;20058;-70
2023/06/23 04:42:08;;;;;;;21.58;15.48;;;;;;;;;;5150758;27;20428;-70
2023/06/23 04:44:38;;;;;;;24.25;16.45;;;;;;;;;;5138349;27;20390;-70
2023/06/23 04:47:05;;;;;;;24.27;16.52;;;;;;;;;;5129353;27;20501;-66
2023/06/23 04:49:32;;;;;;;27.52;18.25;;;;;;;;;;5125455;27;20091;-70
2023/06/23 04:52:02;;;;;;;27.05;18.38;;;;;;;;;;5157425;27;20133;-69
2023/06/23 04:54:40;;;;;;;26.63;17.98;;;;;;;;;;5114600;27;20043;-70
2023/06/23 04:57:17;;;;;;;25.50;18.50;;;;;;;;;;5139524;27;20046;-70
2023/06/23 04:59:46;;;;;;;25.48;18.45;;;;;;;;;;5160508;27;20095;-73
2023/06/23 05:02:13;;;;;;;23.80;18.45;;;;;;;;;;5141674;27;20039;-71
2023/06/23 05:04:41;;;;;;;32.67;19.83;;;;;;;;;;5126580;27;20049;-72
2023/06/23 05:07:08;;;;;;;25.95;18.17;;;;;;;;;;5123222;27;20047;-71
2023/06/23 05:09:35;;;;;;;27.02;18.30;;;;;;;;;;5153361;27;20386;-72
2023/06/23 05:12:02;;;;;;;27.90;19.48;;;;;;;;;;5129583;27;20095;-72
2023/06/23 05:14:29;;;;;;;28.45;19.60;;;;;;;;;;5130476;27;20038;-70
2023/06/23 05:16:58;;;;;;;29.38;19.75;;;;;;;;;;5117279;27;20054;-70
2023/06/23 05:19:25;;;;;;;27.00;20.08;;;;;;;;;;5124965;27;20109;-70
2023/06/23 05:21:53;;;;;;;25.38;18.10;;;;;;;;;;5153445;27;20054;-70
2023/06/23 05:24:19;;;;;;;26.50;18.50;;;;;;;;;;5157305;27;20046;-70
2023/06/23 05:26:46;;;;;;;21.65;15.93;;;;;;;;;;5150919;27;20395;-70
2023/06/23 05:29:14;;;;;;;22.92;15.70;;;;;;;;;;5111877;27;20058;-70
2023/06/23 05:31:42;;;;;;;25.08;16.95;;;;;;;;;;5124869;27;20379;-70
2023/06/23 05:34:10;;;;;;;19.23;14.38;;;;;;;;;;5129775;27;20046;-70
2023/06/23 05:36:37;;;;;;;19.40;14.35;;;;;;;;;;5138989;27;20115;-71
2023/06/23 05:39:05;;;;;;;19.80;15.15;;;;;;;;;;5138814;27;20095;-71
2023/06/23 05:41:31;;;;;;;24.92;14.60;;;;;;;;;;5137922;27;20377;-71
2023/06/23 05:43:58;;;;;;;22.23;14.40;;;;;;;;;;5140236;27;20511;-70
2023/06/23 05:46:25;;;;;;;21.48;14.85;;;;;;;;;;5145067;27;20383;-71
2023/06/23 05:48:53;;;;;;;20.95;15.52;;;;;;;;;;5143943;27;20057;-71
2023/06/23 05:51:25;;;;;;;24.00;15.40;;;;;;;;;;5129633;27;20061;-70
2023/06/23 05:53:54;;;;;;;23.75;17.17;;;;;;;;;;5124085;27;20039;-71
2023/06/23 05:56:31;;;;;;;21.52;16.27;;;;;;;;;;5148975;27;20049;-70
2023/06/23 05:58:59;;;;;;;26.25;16.88;;;;;;;;;;5136187;27;20046;-70
2023/06/23 06:01:27;;;;;;;21.52;15.90;;;;;;;;;;5145452;27;20497;-70
2023/06/23 06:04:16;;;;;;;21.23;16.60;;;;;;;;;;5146471;27;20050;-70
2023/06/23 06:06:45;;;;;;;21.67;17.80;;;;;;;;;;5111231;27;20059;-70
2023/06/23 06:09:12;;;;;;;24.02;17.98;;;;;;;;;;5134313;27;20043;-70
2023/06/23 06:11:39;;;;;;;21.10;16.30;;;;;;;;;;5126070;27;20042;-70
2023/06/23 06:14:07;;;;;;;18.52;14.88;;;;;;;;;;5117871;27;20435;-70
2023/06/23 06:16:35;;;;;;;21.45;14.25;;;;;;;;;;5133149;27;20129;-70
2023/06/23 06:19:01;;;;;;;17.42;13.45;;;;;;;;;;5148586;27;20062;-70
2023/06/23 06:21:29;;;;;;;19.23;13.85;;;;;;;;;;5158627;27;20064;-70
2023/06/23 06:23:55;;;;;;;18.13;11.82;;;;;;;;;;5150112;27;20083;-67
2023/06/23 06:26:21;;;;;;;15.60;11.13;;;;;;;;;;5117352;27;20034;-70
2023/06/23 06:28:50;;;;;;;17.42;10.88;;;;;;;;;;5140168;27;20043;-70
2023/06/23 06:31:16;;;;;;;13.80;10.38;;;;;;;;;;5121618;27;20047;-71
2023/06/23 06:33:43;;;;;;;16.88;9.98;;;;;;;;;;5148492;27;20051;-71
2023/06/23 06:36:09;;;;;;;14.82;10.00;;;;;;;;;;5135480;27;20483;-71
2023/06/23 06:38:37;;;;;;;14.82;9.75;;;;;;;;;;5140943;27;20070;-71
2023/06/23 06:41:05;;;;;;;12.77;9.25;;;;;;;;;;5140906;27;20042;-71
2023/06/23 06:43:31;;;;;;;14.70;9.48;;;;;;;;;;5136349;27;20423;-77
2023/06/23 06:45:59;;;;;;;15.15;9.68;;;;;;;;;;5133205;27;20134;-71
2023/06/23 06:48:26;;;;;;;14.05;9.77;;;;;;;;;;5156034;27;20480;-71
2023/06/23 06:50:53;;;;;;;13.75;10.20;;;;;;;;;;5136790;27;20054;-71
2023/06/23 06:53:21;;;;;;;14.45;9.23;;;;;;;;;;5137429;27;20493;-71
2023/06/23 06:55:47;;;;;;;16.27;10.75;;;;;;;;;;5156077;27;20050;-71
2023/06/23 06:58:14;;;;;;;13.90;10.43;;;;;;;;;;5135958;27;20057;-71
2023/06/23 07:00:41;;;;;;;14.20;11.27;;;;;;;;;;5155802;27;20058;-71
2023/06/23 07:03:07;;;;;;;15.90;11.45;;;;;;;;;;5136922;27;20478;-71
2023/06/23 07:05:34;;;;;;;17.70;11.73;;;;;;;;;;5135925;27;20505;-71
2023/06/23 07:08:00;;;;;;;15.63;10.50;;;;;;;;;;5155678;27;20406;-71
2023/06/23 07:10:26;;;;;;;16.15;11.20;;;;;;;;;;5148659;27;20038;-71
2023/06/23 07:12:52;;;;;;;13.90;10.60;;;;;;;;;;5154878;27;20043;-71
2023/06/23 07:15:18;;;;;;;15.70;10.85;;;;;;;;;;5136287;27;20042;-71
2023/06/23 07:17:44;;;;;;;14.18;10.27;;;;;;;;;;5136248;27;20042;-71
2023/06/23 07:20:11;;;;;;;13.27;10.45;;;;;;;;;;5136132;27;20444;-71
2023/06/23 07:22:37;;;;;;;14.98;10.98;;;;;;;;;;5155569;27;20056;-71
2023/06/23 07:25:03;;;;;;;10.40;8.00;;;;;;;;;;5136237;27;20046;-71
2023/06/23 07:27:30;;;;;;;11.10;8.40;;;;;;;;;;5132268;27;20420;-71
2023/06/23 07:29:58;;;;;;;13.32;9.52;;;;;;;;;;5133298;27;20043;-71
2023/06/23 07:32:25;;;;;;;12.93;9.30;;;;;;;;;;5134523;27;20047;-71
2023/06/23 07:34:51;;;;;;;12.35;9.27;;;;;;;;;;5132203;27;20058;-71
2023/06/23 07:37:18;;;;;;;15.27;9.50;;;;;;;;;;5131259;27;20046;-71
2023/06/23 07:39:44;;;;;;;12.25;9.57;;;;;;;;;;5126225;27;20402;-71
2023/06/23 07:42:10;;;;;;;11.52;8.57;;;;;;;;;;5128509;27;20118;-71
2023/06/23 07:44:37;;;;;;;12.82;8.98;;;;;;;;;;5118131;27;20054;-71
2023/06/23 07:47:03;;;;;;;12.88;8.13;;;;;;;;;;5128013;27;20043;-68
2023/06/23 07:49:30;;;;;;;12.50;8.80;;;;;;;;;;5101819;27;20043;-68
2023/06/23 07:52:00;;;;;;;14.00;8.90;;;;;;;;;;5131807;27;20087;-68
2023/06/23 07:54:29;;;;;;;16.92;9.05;;;;;;;;;;5113431;27;20051;-80
2023/06/23 07:56:59;;;;;;;10.35;6.72;;;;;;;;;;5117436;27;20369;-67
2023/06/23 07:59:26;;;;;;;13.80;7.82;;;;;;;;;;5130108;27;20054;-84
2023/06/23 08:01:52;;;;;;;12.85;7.90;;;;;;;;;;5122933;27;20454;-68
2023/06/23 08:04:19;;;;;;;10.38;7.75;;;;;;;;;;5118152;27;20043;-68
2023/06/23 08:06:45;;;;;;;14.00;7.57;;;;;;;;;;5122564;27;20048;-68
2023/06/23 08:09:11;;;;;;;10.85;7.05;;;;;;;;;;5127214;27;20047;-68
2023/06/23 08:11:38;;;;;;;10.57;6.18;;;;;;;;;;5130503;27;20039;-68
2023/06/23 08:14:05;;;;;;;9.00;5.90;;;;;;;;;;5121857;27;20047;-68
2023/06/23 08:16:31;;;;;;;10.13;6.38;;;;;;;;;;5109504;28;20043;-68
2023/06/23 08:18:57;;;;;;;7.25;4.95;;;;;;;;;;5129995;27;20115;-69
2023/06/23 08:21:23;;;;;;;8.30;5.25;;;;;;;;;;5122405;27;20035;-68
2023/06/23 08:23:50;;;;;;;10.82;5.72;;;;;;;;;;5127956;27;20045;-69
2023/06/23 08:26:16;;;;;;;9.93;6.13;;;;;;;;;;5133404;27;20513;-69
2023/06/23 08:28:42;;;;;;;9.32;5.70;;;;;;;;;;5111238;28;20047;-69
2023/06/23 08:31:09;;;;;;;7.97;4.78;;;;;;;;;;5111911;27;20126;-69
2023/06/23 08:33:35;;;;;;;8.15;5.15;;;;;;;;;;5130140;27;20125;-69
2023/06/23 08:36:03;;;;;;;7.97;4.80;;;;;;;;;;5131944;27;20166;-69
2023/06/23 08:38:29;;;;;;;9.60;5.40;;;;;;;;;;5131557;27;20111;-70
2023/06/23 08:40:55;;;;;;;6.50;4.45;;;;;;;;;;5132166;27;20051;-69
2023/06/23 08:43:25;;;;;;;9.43;4.05;;;;;;;;;;5120059;27;20051;-70
2023/06/23 08:45:56;;;;;;;6.95;4.13;;;;;;;;;;5127942;27;20047;-70
2023/06/23 08:48:26;;;;;;;7.95;4.80;;;;;;;;;;5131725;27;20047;-69
2023/06/23 08:50:57;;;;;;;7.25;4.38;;;;;;;;;;5123620;27;20055;-69
2023/06/23 08:53:24;;;;;;;7.75;4.45;;;;;;;;;;5130657;27;20118;-68
2023/06/23 08:55:50;;;;;;;7.78;4.63;;;;;;;;;;5131785;27;20043;-69
2023/06/23 08:58:17;;;;;;;9.50;4.90;;;;;;;;;;5129032;27;20058;-68
2023/06/23 09:00:44;;;;;;;6.47;4.80;;;;;;;;;;5126924;27;20036;-69
2023/06/23 09:03:10;;;;;;;7.22;4.97;;;;;;;;;;5108618;28;20047;-69
2023/06/23 09:05:36;;;;;;;9.40;5.43;;;;;;;;;;5116884;27;20083;-69
2023/06/23 09:08:02;;;;;;;9.32;4.40;;;;;;;;;;5129431;27;20043;-68
2023/06/23 09:10:28;;;;;;;8.27;4.75;;;;;;;;;;5133050;27;20091;-69
2023/06/23 09:13:23;;;;;;;8.32;5.00;;;;;;;;;;5116861;27;20050;-69
2023/06/23 09:15:50;;;;;;;10.52;4.65;;;;;;;;;;5125569;27;20062;-69
2023/06/23 09:18:16;;;;;;;9.82;6.00;;;;;;;;;;5132855;27;21674;-69
2023/06/23 09:20:46;;;;;;;10.07;5.53;;;;;;;;;;5127218;28;20395;-68
2023/06/23 09:23:14;;;;;;;9.82;5.32;;;;;;;;;;5126625;28;20036;-69
2023/06/23 09:25:43;;;;;;;7.13;4.80;;;;;;;;;;5130821;28;20126;-69
2023/06/23 09:28:23;;;;;;;8.40;4.50;;;;;;;;;;5142335;27;20050;-69
2023/06/23 09:30:49;;;;;;;9.18;5.05;;;;;;;;;;5127370;27;20059;-68
2023/06/23 09:33:17;;;;;;;9.27;4.40;;;;;;;;;;5128879;27;20043;-68
2023/06/23 09:35:50;;;;;;;13.85;5.13;;;;;;;;;;5130916;27;20042;-68
2023/06/23 09:38:26;;;;;;;6.85;4.68;;;;;;;;;;5136587;27;20076;-69
2023/06/23 09:41:07;;;;;;;13.20;5.70;;;;;;;;;;5134319;27;20138;-68
2023/06/23 09:43:52;;;;;;;6.90;4.63;;;;;;;;;;5128012;27;20081;-68
2023/06/23 09:46:20;;;;;;;7.53;5.32;;;;;;;;;;5109442;27;20386;-68
2023/06/23 09:48:47;;;;;;;7.90;5.22;;;;;;;;;;5131864;27;20084;-68
2023/06/23 09:51:13;;;;;;;8.30;5.38;;;;;;;;;;5123668;27;20043;-69
2023/06/23 09:53:41;;;;;;;6.93;4.72;;;;;;;;;;5106170;27;20051;-68
2023/06/23 09:56:08;;;;;;;10.15;5.40;;;;;;;;;;5123743;27;20042;-68
2023/06/23 09:58:38;;;;;;;8.93;4.93;;;;;;;;;;5146653;27;20043;-68
2023/06/23 10:01:11;;;;;;;6.22;4.78;;;;;;;;;;5123746;27;20035;-69
2023/06/23 10:03:37;;;;;;;;;;;;;;;;;;5140132;27;20486;-69
2023/06/23 10:06:03;;;;;;;6.30;4.10;;;;;;;;;;5121398;27;20706;-69
2023/06/23 10:08:29;;;;;;;7.68;4.80;;;;;;;;;;5121215;27;20372;-69
2023/06/23 10:10:55;;;;;;;8.05;4.32;;;;;;;;;;5147642;27;20087;-69
2023/06/23 10:13:22;;;;;;;8.70;4.70;;;;;;;;;;5141653;27;20053;-68
2023/06/23 10:15:49;;;;;;;6.90;4.90;;;;;;;;;;5127210;27;20043;-69
2023/06/23 10:18:16;;;;;;;8.80;4.68;;;;;;;;;;5103930;27;20121;-69
2023/06/23 10:20:42;;;;;;;7.25;4.15;;;;;;;;;;5111163;27;20047;-69
2023/06/23 10:23:09;;;;;;;8.23;4.63;;;;;;;;;;5146058;27;20422;-68
2023/06/23 10:25:36;;;;;;;8.35;4.72;;;;;;;;;;5134806;27;20485;-69
2023/06/23 10:28:06;;;;;;;5.85;3.75;;;;;;;;;;5152401;27;20077;-69
2023/06/23 10:30:33;;;;;;;8.45;4.88;;;;;;;;;;5110064;27;20126;-69
2023/06/23 10:32:59;;;;;;;7.47;4.45;;;;;;;;;;5155250;27;20147;-69
2023/06/23 10:35:26;;;;;;;8.15;4.47;;;;;;;;;;5156379;27;20031;-72
2023/06/23 10:37:57;;;;;;;6.47;3.97;;;;;;;;;;5150116;27;20078;-72
2023/06/23 10:40:24;;;;;;;5.75;3.63;;;;;;;;;;5147911;27;20039;-71
2023/06/23 10:42:51;;;;;;;7.70;3.90;;;;;;;;;;5126318;27;20091;-72
2023/06/23 10:45:17;;;;;;;5.20;3.55;;;;;;;;;;5137128;27;20039;-71
2023/06/23 10:47:44;;;;;;;7.50;3.80;;;;;;;;;;5134564;27;20450;-71
2023/06/23 10:50:12;;;;;;;6.35;3.45;;;;;;;;;;5125869;27;20038;-71
2023/06/23 10:52:38;;;;;;;6.55;3.55;;;;;;;;;;5119192;27;20439;-71
2023/06/23 10:55:30;;;;;;;4.95;2.92;;;;;;;;;;5124431;27;20043;-71
2023/06/23 10:58:27;;;;;;;5.35;3.22;;;;;;;;;;5142248;27;20046;-70
2023/06/23 11:00:53;;;;;;;5.63;3.38;;;;;;;;;;5123462;27;20071;-71
2023/06/23 11:03:33;;;;;;;7.07;3.05;;;;;;;;;;5121870;27;20062;-69
2023/06/23 11:06:06;;;;;;;7.43;3.08;;;;;;;;;;5149404;27;20106;-71
2023/06/23 11:08:32;;;;;;;;;;;;;;;;;;5135596;27;20039;-71
2023/06/23 11:11:06;;;;;;;5.90;3.00;;;;;;;;;;5144295;27;19919;-71
2023/06/23 11:13:37;;;;;;;7.93;3.55;;;;;;;;;;5122546;27;20505;-71
2023/06/23 11:16:04;;;;;;;8.38;3.50;;;;;;;;;;5099732;27;20039;-71
2023/06/23 11:18:30;;;;;;;5.93;3.25;;;;;;;;;;5120111;27;20042;-71
2023/06/23 11:21:16;;;;;;;5.63;3.13;;;;;;;;;;5123429;27;20050;-71
2023/06/23 11:24:01;;;;;;;4.63;2.67;;;;;;;;;;5120702;27;20130;-70
2023/06/23 11:26:28;;;;;;;5.65;2.97;;;;;;;;;;5141990;27;20038;-69
2023/06/23 11:28:56;;;;;;;6.22;3.10;;;;;;;;;;5151202;27;20090;-71
2023/06/23 11:31:27;;;;;;;7.43;2.83;;;;;;;;;;5124176;27;20035;-71
2023/06/23 11:33:56;;;;;;;6.32;2.78;;;;;;;;;;5120381;27;20051;-71
2023/06/23 11:36:24;;;;;;;5.60;2.65;;;;;;;;;;5116264;27;20043;-71
2023/06/23 11:38:51;;;;;;;5.90;3.00;;;;;;;;;;5123116;27;20494;-71
2023/06/23 11:41:30;;;;;;;5.22;2.65;;;;;;;;;;5143461;27;20066;-71
2023/06/23 11:44:00;;;;;;;6.40;2.72;;;;;;;;;;5115614;27;20074;-71
2023/06/23 11:46:26;;;;;;;4.50;2.55;;;;;;;;;;5135178;27;20110;-72
2023/06/23 11:48:53;;;;;;;4.00;1.92;;;;;;;;;;5114151;27;20039;-71
2023/06/23 11:51:22;;;;;;;4.30;2.08;;;;;;;;;;5152895;27;20517;-71
2023/06/23 11:53:52;;;;;;;6.13;2.75;;;;;;;;;;5152707;27;20442;-71
2023/06/23 11:56:19;;;;;;;6.28;3.10;;;;;;;;;;5153570;27;20118;-71
2023/06/23 11:59:04;;;;;;;4.65;2.40;;;;;;;;;;5148709;27;20039;-71
2023/06/23 12:01:30;;;;;;;5.00;2.10;;;;;;;;;;5152353;27;20038;-72
2023/06/23 12:03:56;;;;;;;3.95;2.00;;;;;;;;;;5136060;27;20039;-72
2023/06/23 12:06:27;;;;;;;5.40;2.80;;;;;;;;;;5147738;27;20125;-71
2023/06/23 12:08:54;;;;;;;5.05;2.20;;;;;;;;;;5129844;27;20054;-72
2023/06/23 12:11:21;;;;;;;6.28;2.22;;;;;;;;;;5149822;27;20107;-72
2023/06/23 12:13:48;;;;;;;6.05;2.38;;;;;;;;;;5154216;27;20042;-72
2023/06/23 12:16:15;;;;;;;4.75;1.80;;;;;;;;;;5150853;27;20258;-71
2023/06/23 12:18:50;;;;;;;6.95;2.10;;;;;;;;;;5138252;27;20118;-71
2023/06/23 12:21:17;;;;;;;4.95;2.30;;;;;;;;;;5153966;27;20491;-72
2023/06/23 12:23:43;;;;;;;4.30;1.85;;;;;;;;;;5128373;27;20065;-72
2023/06/23 12:26:10;;;;;;;4.72;2.40;;;;;;;;;;5154261;27;20038;-72
2023/06/23 12:28:36;;;;;;;4.20;1.90;;;;;;;;;;5129857;27;20062;-71
2023/06/23 12:31:06;;;;;;;4.65;2.03;;;;;;;;;;5130739;27;20047;-71
2023/06/23 12:33:35;;;;;;;3.30;1.73;;;;;;;;;;5128649;27;20059;-71
2023/06/23 12:36:03;;;;;;;5.20;2.20;;;;;;;;;;5123889;27;20127;-73
2023/06/23 12:38:30;;;;;;;5.63;2.30;;;;;;;;;;5116026;27;20490;-72
2023/06/23 12:40:56;;;;;;;4.82;1.80;;;;;;;;;;5120238;27;20135;-71
2023/06/23 12:43:22;;;;;;;4.43;2.08;;;;;;;;;;5122802;27;20047;-72
2023/06/23 12:45:49;;;;;;;3.88;2.22;;;;;;;;;;5122415;27;20047;-71
2023/06/23 12:48:16;;;;;;;5.15;2.05;;;;;;;;;;5119597;27;20092;-71
2023/06/23 12:50:42;;;;;;;4.03;1.85;;;;;;;;;;5120918;27;20058;-72
2023/06/23 12:53:09;;;;;;;6.32;2.20;;;;;;;;;;5118029;27;20414;-72
2023/06/23 12:55:35;;;;;;;4.60;1.95;;;;;;;;;;5119347;27;20478;-72
2023/06/23 12:58:02;;;;;;;4.55;2.10;;;;;;;;;;5119770;27;20046;-71
2023/06/23 13:00:28;;;;;;;8.20;2.25;;;;;;;;;;5121845;27;20047;-72
2023/06/23 13:02:54;;;;;;;5.05;2.00;;;;;;;;;;5110243;27;20472;-72
2023/06/23 13:05:20;;;;;;;7.38;2.10;;;;;;;;;;5110298;28;20080;-72
2023/06/23 13:07:47;;;;;;;6.63;1.80;;;;;;;;;;5110145;28;20134;-72
2023/06/23 13:10:13;;;;;;;5.65;2.00;;;;;;;;;;5099838;28;20528;-72
2023/06/23 13:12:39;;;;;;;4.15;1.73;;;;;;;;;;5109931;27;20082;-72
2023/06/23 13:15:06;;;;;;;4.35;1.90;;;;;;;;;;5113737;27;20126;-72
2023/06/23 13:17:32;;;;;;;4.60;1.90;;;;;;;;;;5114474;27;20051;-72
2023/06/23 13:19:59;;;;;;;6.13;2.42;;;;;;;;;;5120116;27;20051;-71
2023/06/23 13:22:25;;;;;;;4.55;1.88;;;;;;;;;;5118030;27;20436;-72
2023/06/23 13:24:56;;;;;;;4.60;1.70;;;;;;;;;;5110998;28;20043;-72
2023/06/23 13:27:22;;;;;;;4.90;1.60;;;;;;;;;;5120816;27;20061;-72
2023/06/23 13:29:48;;;;;;;5.80;2.20;;;;;;;;;;5131697;27;20057;-72
2023/06/23 13:32:14;;;;;;;4.43;1.90;;;;;;;;;;5113894;27;20043;-72
2023/06/23 13:34:41;;;;;;;4.00;1.98;;;;;;;;;;5121821;27;20095;-72
2023/06/23 13:37:07;;;;;;;5.85;2.10;;;;;;;;;;5151632;27;20504;-72
2023/06/23 13:39:34;;;;;;;5.20;1.90;;;;;;;;;;5138854;27;20121;-72
2023/06/23 13:42:01;;;;;;;6.53;2.25;;;;;;;;;;5132235;27;20482;-72
2023/06/23 13:44:27;;;;;;;5.07;2.22;;;;;;;;;;5147678;27;20034;-72
2023/06/23 13:46:53;;;;;;;5.22;2.50;;;;;;;;;;5137628;27;20091;-72
2023/06/23 13:49:19;;;;;;;5.05;2.00;;;;;;;;;;5138100;27;20047;-72
2023/06/23 13:51:46;;;;;;;3.88;1.80;;;;;;;;;;5141444;27;20342;-72
2023/06/23 13:54:12;;;;;;;6.03;2.10;;;;;;;;;;5164072;27;20099;-72
2023/06/23 13:56:38;;;;;;;6.70;2.53;;;;;;;;;;5152978;27;20069;-72
2023/06/23 13:59:04;;;;;;;6.38;2.42;;;;;;;;;;5137911;27;20121;-73
2023/06/23 14:01:31;;;;;;;7.55;2.88;;;;;;;;;;5137602;27;20390;-72
2023/06/23 14:03:57;;;;;;;6.50;2.60;;;;;;;;;;5138409;27;20035;-73
2023/06/23 14:06:23;;;;;;;7.20;2.65;;;;;;;;;;5156234;27;20042;-73
2023/06/23 14:08:51;;;;;;;7.32;3.05;;;;;;;;;;5156162;27;20110;-73
2023/06/23 14:11:17;;;;;;;5.63;2.20;;;;;;;;;;5137745;27;20078;-73
2023/06/23 14:13:44;;;;;;;5.85;2.63;;;;;;;;;;5118003;27;20441;-73
2023/06/23 14:16:14;;;;;;;6.90;2.10;;;;;;;;;;5133370;27;20086;-73
2023/06/23 14:18:40;;;;;;;4.10;1.98;;;;;;;;;;5138502;27;20047;-73
2023/06/23 14:21:06;;;;;;;9.10;2.10;;;;;;;;;;5143375;27;20482;-71
2023/06/23 14:23:32;;;;;;;5.70;2.40;;;;;;;;;;5137702;27;20039;-71
2023/06/23 14:25:59;;;;;;;6.25;2.38;;;;;;;;;;5154426;27;20401;-71
2023/06/23 14:28:26;;;;;;;4.80;2.33;;;;;;;;;;5152476;27;20057;-71
2023/06/23 14:30:53;;;;;;;5.22;2.17;;;;;;;;;;5156474;27;20102;-71
2023/06/23 14:33:19;;;;;;;4.95;2.50;;;;;;;;;;5115392;27;20406;-72
2023/06/23 14:35:45;;;;;;;7.20;2.35;;;;;;;;;;5150364;27;20034;-73